sensor_id;sensor_type;location;lat;lon;timestamp;P1;durP1;ratioP1;P2;durP2;ratioP2
73879;SDS011;62211;42.986;23.256;2022-09-13T00:01:15;9.98;;;8.98;;
73879;SDS011;62211;42.986;23.256;2022-09-13T00:03:40;13.65;;;9.57;;
73879;SDS011;62211;42.986;23.256;2022-09-13T00:08:39;12.27;;;8.95;;
73879;SDS011;62211;42.986;23.256;2022-09-13T00:11:05;10.00;;;9.00;;
73879;SDS011;62211;42.986;23.256;2022-09-13T00:13:31;9.55;;;8.55;;
73879;SDS011;62211;42.986;23.256;2022-09-13T00:15:57;10.55;;;8.73;;
73879;SDS011;62211;42.986;23.256;2022-09-13T00:18:25;9.82;;;8.82;;
73879;SDS011;62211;42.986;23.256;2022-09-13T00:20:50;9.82;;;8.85;;
73879;SDS011;62211;42.986;23.256;2022-09-13T00:23:16;11.32;;;8.98;;
73879;SDS011;62211;42.986;23.256;2022-09-13T00:25:41;9.82;;;8.88;;
73879;SDS011;62211;42.986;23.256;2022-09-13T00:28:06;11.07;;;8.77;;
73879;SDS011;62211;42.986;23.256;2022-09-13T00:30:32;9.55;;;8.55;;
73879;SDS011;62211;42.986;23.256;2022-09-13T00:32:58;9.95;;;8.88;;
73879;SDS011;62211;42.986;23.256;2022-09-13T00:35:23;9.32;;;8.43;;
73879;SDS011;62211;42.986;23.256;2022-09-13T00:37:49;9.80;;;8.80;;
73879;SDS011;62211;42.986;23.256;2022-09-13T00:40:14;9.85;;;8.85;;
73879;SDS011;62211;42.986;23.256;2022-09-13T00:42:40;9.90;;;8.55;;
73879;SDS011;62211;42.986;23.256;2022-09-13T00:50:42;11.55;;;9.40;;
73879;SDS011;62211;42.986;23.256;2022-09-13T00:53:11;9.85;;;8.55;;
73879;SDS011;62211;42.986;23.256;2022-09-13T00:55:42;9.73;;;8.40;;
73879;SDS011;62211;42.986;23.256;2022-09-13T00:58:53;10.77;;;9.50;;
73879;SDS011;62211;42.986;23.256;2022-09-13T01:01:11;10.63;;;9.07;;
73879;SDS011;62211;42.986;23.256;2022-09-13T01:03:38;12.18;;;8.70;;
73879;SDS011;62211;42.986;23.256;2022-09-13T01:06:08;10.18;;;8.75;;
73879;SDS011;62211;42.986;23.256;2022-09-13T01:08:36;10.82;;;9.32;;
73879;SDS011;62211;42.986;23.256;2022-09-13T01:11:03;9.07;;;8.18;;
73879;SDS011;62211;42.986;23.256;2022-09-13T01:13:31;10.80;;;8.88;;
73879;SDS011;62211;42.986;23.256;2022-09-13T01:15:57;10.88;;;8.85;;
73879;SDS011;62211;42.986;23.256;2022-09-13T01:18:23;9.63;;;8.68;;
73879;SDS011;62211;42.986;23.256;2022-09-13T01:29:13;9.23;;;8.20;;
73879;SDS011;62211;42.986;23.256;2022-09-13T01:31:50;8.45;;;7.55;;
73879;SDS011;62211;42.986;23.256;2022-09-13T01:39:29;8.85;;;7.95;;
73879;SDS011;62211;42.986;23.256;2022-09-13T01:42:02;9.75;;;8.77;;
73879;SDS011;62211;42.986;23.256;2022-09-13T01:50:20;9.02;;;8.13;;
73879;SDS011;62211;42.986;23.256;2022-09-13T01:55:25;10.98;;;9.10;;
73879;SDS011;62211;42.986;23.256;2022-09-13T01:58:25;9.68;;;8.63;;
73879;SDS011;62211;42.986;23.256;2022-09-13T02:01:06;10.55;;;7.65;;
73879;SDS011;62211;42.986;23.256;2022-09-13T02:03:43;12.10;;;8.70;;
73879;SDS011;62211;42.986;23.256;2022-09-13T02:06:14;9.70;;;8.68;;
73879;SDS011;62211;42.986;23.256;2022-09-13T02:09:03;10.82;;;8.48;;
73879;SDS011;62211;42.986;23.256;2022-09-13T02:11:50;8.18;;;7.40;;
73879;SDS011;62211;42.986;23.256;2022-09-13T02:14:21;8.88;;;7.90;;
73879;SDS011;62211;42.986;23.256;2022-09-13T02:16:51;9.35;;;8.15;;
73879;SDS011;62211;42.986;23.256;2022-09-13T02:19:23;11.47;;;8.63;;
73879;SDS011;62211;42.986;23.256;2022-09-13T02:21:53;9.80;;;8.57;;
73879;SDS011;62211;42.986;23.256;2022-09-13T02:24:31;9.63;;;7.82;;
73879;SDS011;62211;42.986;23.256;2022-09-13T02:26:58;9.70;;;8.57;;
73879;SDS011;62211;42.986;23.256;2022-09-13T02:29:29;11.65;;;8.68;;
73879;SDS011;62211;42.986;23.256;2022-09-13T02:34:33;9.23;;;7.43;;
73879;SDS011;62211;42.986;23.256;2022-09-13T02:37:03;8.57;;;7.68;;
73879;SDS011;62211;42.986;23.256;2022-09-13T02:39:29;8.57;;;7.57;;
73879;SDS011;62211;42.986;23.256;2022-09-13T02:42:04;8.63;;;7.05;;
73879;SDS011;62211;42.986;23.256;2022-09-13T02:44:45;9.63;;;6.70;;
73879;SDS011;62211;42.986;23.256;2022-09-13T02:52:56;8.93;;;8.02;;
73879;SDS011;62211;42.986;23.256;2022-09-13T02:55:35;10.75;;;8.45;;
73879;SDS011;62211;42.986;23.256;2022-09-13T02:58:19;9.32;;;7.72;;
73879;SDS011;62211;42.986;23.256;2022-09-13T03:00:47;8.87;;;7.67;;
73879;SDS011;62211;42.986;23.256;2022-09-13T03:03:13;9.55;;;7.70;;
73879;SDS011;62211;42.986;23.256;2022-09-13T03:05:40;8.70;;;6.82;;
73879;SDS011;62211;42.986;23.256;2022-09-13T03:08:06;8.50;;;7.05;;
73879;SDS011;62211;42.986;23.256;2022-09-13T03:11:24;12.30;;;7.40;;
73879;SDS011;62211;42.986;23.256;2022-09-13T03:13:27;9.20;;;8.15;;
73879;SDS011;62211;42.986;23.256;2022-09-13T03:24:32;10.00;;;7.75;;
73879;SDS011;62211;42.986;23.256;2022-09-13T03:41:35;9.63;;;7.30;;
73879;SDS011;62211;42.986;23.256;2022-09-13T03:44:06;7.80;;;6.57;;
73879;SDS011;62211;42.986;23.256;2022-09-13T03:46:39;8.75;;;7.85;;
73879;SDS011;62211;42.986;23.256;2022-09-13T03:49:07;8.38;;;7.35;;
73879;SDS011;62211;42.986;23.256;2022-09-13T03:51:42;8.43;;;6.95;;
73879;SDS011;62211;42.986;23.256;2022-09-13T03:54:10;8.85;;;7.78;;
73879;SDS011;62211;42.986;23.256;2022-09-13T03:56:39;10.82;;;7.60;;
73879;SDS011;62211;42.986;23.256;2022-09-13T03:59:04;9.90;;;8.15;;
73879;SDS011;62211;42.986;23.256;2022-09-13T04:01:30;8.95;;;7.38;;
73879;SDS011;62211;42.986;23.256;2022-09-13T04:03:55;9.00;;;7.43;;
73879;SDS011;62211;42.986;23.256;2022-09-13T04:06:21;10.27;;;7.82;;
73879;SDS011;62211;42.986;23.256;2022-09-13T04:08:46;10.75;;;7.28;;
73879;SDS011;62211;42.986;23.256;2022-09-13T04:11:12;9.68;;;8.68;;
73879;SDS011;62211;42.986;23.256;2022-09-13T04:13:37;14.30;;;8.23;;
73879;SDS011;62211;42.986;23.256;2022-09-13T04:16:03;9.93;;;8.65;;
73879;SDS011;62211;42.986;23.256;2022-09-13T04:18:30;9.02;;;8.07;;
73879;SDS011;62211;42.986;23.256;2022-09-13T04:20:56;10.40;;;8.23;;
73879;SDS011;62211;42.986;23.256;2022-09-13T04:23:23;10.63;;;8.52;;
73879;SDS011;62211;42.986;23.256;2022-09-13T04:25:49;13.18;;;7.57;;
73879;SDS011;62211;42.986;23.256;2022-09-13T04:28:17;9.25;;;7.28;;
73879;SDS011;62211;42.986;23.256;2022-09-13T04:30:43;12.10;;;9.05;;
73879;SDS011;62211;42.986;23.256;2022-09-13T04:33:09;10.05;;;8.10;;
73879;SDS011;62211;42.986;23.256;2022-09-13T04:35:35;8.30;;;7.40;;
73879;SDS011;62211;42.986;23.256;2022-09-13T04:38:00;12.88;;;8.98;;
73879;SDS011;62211;42.986;23.256;2022-09-13T04:40:26;19.95;;;10.70;;
73879;SDS011;62211;42.986;23.256;2022-09-13T04:42:51;18.70;;;10.68;;
73879;SDS011;62211;42.986;23.256;2022-09-13T04:45:16;12.55;;;8.88;;
73879;SDS011;62211;42.986;23.256;2022-09-13T04:47:42;12.50;;;10.55;;
73879;SDS011;62211;42.986;23.256;2022-09-13T04:50:08;15.38;;;9.95;;
73879;SDS011;62211;42.986;23.256;2022-09-13T04:52:34;12.77;;;9.63;;
73879;SDS011;62211;42.986;23.256;2022-09-13T04:54:59;10.57;;;9.20;;
73879;SDS011;62211;42.986;23.256;2022-09-13T04:57:26;13.88;;;9.50;;
73879;SDS011;62211;42.986;23.256;2022-09-13T04:59:52;11.48;;;9.15;;
73879;SDS011;62211;42.986;23.256;2022-09-13T05:02:18;13.52;;;9.00;;
73879;SDS011;62211;42.986;23.256;2022-09-13T05:04:43;12.98;;;8.52;;
73879;SDS011;62211;42.986;23.256;2022-09-13T05:07:09;9.75;;;8.68;;
73879;SDS011;62211;42.986;23.256;2022-09-13T05:09:34;11.35;;;8.70;;
73879;SDS011;62211;42.986;23.256;2022-09-13T05:11:59;15.43;;;9.60;;
73879;SDS011;62211;42.986;23.256;2022-09-13T05:14:25;12.30;;;9.10;;
73879;SDS011;62211;42.986;23.256;2022-09-13T05:16:50;11.80;;;8.73;;
73879;SDS011;62211;42.986;23.256;2022-09-13T05:19:16;12.52;;;8.70;;
73879;SDS011;62211;42.986;23.256;2022-09-13T05:21:41;14.15;;;8.15;;
73879;SDS011;62211;42.986;23.256;2022-09-13T05:24:07;13.65;;;8.23;;
73879;SDS011;62211;42.986;23.256;2022-09-13T05:26:33;8.13;;;7.25;;
73879;SDS011;62211;42.986;23.256;2022-09-13T05:28:59;7.40;;;6.68;;
73879;SDS011;62211;42.986;23.256;2022-09-13T05:31:26;9.40;;;7.65;;
73879;SDS011;62211;42.986;23.256;2022-09-13T05:33:55;10.57;;;9.15;;
73879;SDS011;62211;42.986;23.256;2022-09-13T05:36:25;12.40;;;8.27;;
73879;SDS011;62211;42.986;23.256;2022-09-13T05:38:51;14.02;;;8.70;;
73879;SDS011;62211;42.986;23.256;2022-09-13T05:41:17;16.30;;;7.97;;
73879;SDS011;62211;42.986;23.256;2022-09-13T05:43:42;8.90;;;7.00;;
73879;SDS011;62211;42.986;23.256;2022-09-13T05:48:37;10.15;;;6.90;;
73879;SDS011;62211;42.986;23.256;2022-09-13T05:51:24;8.10;;;7.10;;
73879;SDS011;62211;42.986;23.256;2022-09-13T05:53:49;8.30;;;6.60;;
73879;SDS011;62211;42.986;23.256;2022-09-13T05:56:17;18.77;;;8.35;;
73879;SDS011;62211;42.986;23.256;2022-09-13T05:58:47;10.30;;;7.43;;
73879;SDS011;62211;42.986;23.256;2022-09-13T06:01:13;8.95;;;7.03;;
73879;SDS011;62211;42.986;23.256;2022-09-13T06:03:40;9.48;;;7.40;;
73879;SDS011;62211;42.986;23.256;2022-09-13T06:06:05;12.02;;;6.72;;
73879;SDS011;62211;42.986;23.256;2022-09-13T06:08:31;10.73;;;6.53;;
73879;SDS011;62211;42.986;23.256;2022-09-13T06:11:05;9.70;;;6.80;;
73879;SDS011;62211;42.986;23.256;2022-09-13T06:13:32;12.45;;;7.25;;
73879;SDS011;62211;42.986;23.256;2022-09-13T06:15:58;7.70;;;5.93;;
73879;SDS011;62211;42.986;23.256;2022-09-13T06:18:25;6.88;;;5.82;;
73879;SDS011;62211;42.986;23.256;2022-09-13T06:20:55;8.25;;;6.50;;
73879;SDS011;62211;42.986;23.256;2022-09-13T06:23:23;11.23;;;7.70;;
73879;SDS011;62211;42.986;23.256;2022-09-13T06:25:48;10.48;;;7.07;;
73879;SDS011;62211;42.986;23.256;2022-09-13T06:28:14;8.35;;;7.43;;
73879;SDS011;62211;42.986;23.256;2022-09-13T06:30:39;11.75;;;7.78;;
73879;SDS011;62211;42.986;23.256;2022-09-13T06:33:04;10.95;;;7.90;;
73879;SDS011;62211;42.986;23.256;2022-09-13T06:35:30;14.45;;;9.07;;
73879;SDS011;62211;42.986;23.256;2022-09-13T06:37:56;16.27;;;10.70;;
73879;SDS011;62211;42.986;23.256;2022-09-13T06:40:22;11.45;;;8.38;;
73879;SDS011;62211;42.986;23.256;2022-09-13T06:42:48;9.43;;;6.95;;
73879;SDS011;62211;42.986;23.256;2022-09-13T06:45:14;7.85;;;6.78;;
73879;SDS011;62211;42.986;23.256;2022-09-13T06:47:39;9.18;;;6.03;;
73879;SDS011;62211;42.986;23.256;2022-09-13T06:50:05;12.65;;;7.15;;
73879;SDS011;62211;42.986;23.256;2022-09-13T06:52:31;7.53;;;6.65;;
73879;SDS011;62211;42.986;23.256;2022-09-13T06:54:57;47.67;;;23.73;;
73879;SDS011;62211;42.986;23.256;2022-09-13T06:57:23;13.25;;;9.45;;
73879;SDS011;62211;42.986;23.256;2022-09-13T06:59:48;14.63;;;7.13;;
73879;SDS011;62211;42.986;23.256;2022-09-13T07:02:13;38.00;;;10.85;;
73879;SDS011;62211;42.986;23.256;2022-09-13T07:04:39;11.05;;;6.43;;
73879;SDS011;62211;42.986;23.256;2022-09-13T07:07:05;8.40;;;6.70;;
73879;SDS011;62211;42.986;23.256;2022-09-13T07:09:30;7.38;;;6.35;;
73879;SDS011;62211;42.986;23.256;2022-09-13T07:11:56;6.47;;;5.20;;
73879;SDS011;62211;42.986;23.256;2022-09-13T07:14:22;9.07;;;6.03;;
73879;SDS011;62211;42.986;23.256;2022-09-13T07:16:49;6.00;;;5.10;;
73879;SDS011;62211;42.986;23.256;2022-09-13T07:19:19;8.25;;;5.75;;
73879;SDS011;62211;42.986;23.256;2022-09-13T07:21:47;6.18;;;5.45;;
73879;SDS011;62211;42.986;23.256;2022-09-13T07:24:14;9.65;;;5.03;;
73879;SDS011;62211;42.986;23.256;2022-09-13T07:26:40;8.65;;;5.20;;
73879;SDS011;62211;42.986;23.256;2022-09-13T07:29:06;5.20;;;4.70;;
73879;SDS011;62211;42.986;23.256;2022-09-13T07:31:37;7.68;;;4.80;;
73879;SDS011;62211;42.986;23.256;2022-09-13T07:34:07;8.15;;;5.60;;
73879;SDS011;62211;42.986;23.256;2022-09-13T07:36:35;7.18;;;4.93;;
73879;SDS011;62211;42.986;23.256;2022-09-13T07:39:02;5.57;;;5.03;;
73879;SDS011;62211;42.986;23.256;2022-09-13T07:41:28;5.28;;;4.20;;
73879;SDS011;62211;42.986;23.256;2022-09-13T07:43:54;5.90;;;4.57;;
73879;SDS011;62211;42.986;23.256;2022-09-13T07:46:22;4.65;;;4.18;;
73879;SDS011;62211;42.986;23.256;2022-09-13T07:48:50;5.40;;;4.30;;
73879;SDS011;62211;42.986;23.256;2022-09-13T07:51:17;6.07;;;4.70;;
73879;SDS011;62211;42.986;23.256;2022-09-13T07:53:45;5.25;;;4.40;;
73879;SDS011;62211;42.986;23.256;2022-09-13T07:58:38;5.13;;;3.97;;
73879;SDS011;62211;42.986;23.256;2022-09-13T08:03:34;3.85;;;3.55;;
73879;SDS011;62211;42.986;23.256;2022-09-13T08:06:00;4.28;;;3.83;;
73879;SDS011;62211;42.986;23.256;2022-09-13T08:08:26;5.68;;;4.38;;
73879;SDS011;62211;42.986;23.256;2022-09-13T08:10:52;4.53;;;3.60;;
73879;SDS011;62211;42.986;23.256;2022-09-13T08:13:18;4.55;;;4.15;;
73879;SDS011;62211;42.986;23.256;2022-09-13T08:15:43;10.88;;;4.07;;
73879;SDS011;62211;42.986;23.256;2022-09-13T08:18:09;4.22;;;3.80;;
73879;SDS011;62211;42.986;23.256;2022-09-13T08:20:35;3.40;;;3.10;;
73879;SDS011;62211;42.986;23.256;2022-09-13T08:23:02;3.72;;;3.28;;
73879;SDS011;62211;42.986;23.256;2022-09-13T08:25:28;3.70;;;3.33;;
73879;SDS011;62211;42.986;23.256;2022-09-13T08:27:55;6.40;;;3.70;;
73879;SDS011;62211;42.986;23.256;2022-09-13T08:30:21;4.47;;;3.97;;
73879;SDS011;62211;42.986;23.256;2022-09-13T08:32:48;6.68;;;3.60;;
73879;SDS011;62211;42.986;23.256;2022-09-13T08:35:14;4.93;;;4.43;;
73879;SDS011;62211;42.986;23.256;2022-09-13T08:37:40;4.18;;;3.60;;
73879;SDS011;62211;42.986;23.256;2022-09-13T08:40:05;6.82;;;4.20;;
73879;SDS011;62211;42.986;23.256;2022-09-13T08:45:17;11.02;;;5.25;;
73879;SDS011;62211;42.986;23.256;2022-09-13T08:47:45;6.95;;;4.40;;
73879;SDS011;62211;42.986;23.256;2022-09-13T08:50:14;3.85;;;2.80;;
73879;SDS011;62211;42.986;23.256;2022-09-13T09:04:04;5.43;;;3.13;;
73879;SDS011;62211;42.986;23.256;2022-09-13T09:06:31;3.78;;;2.88;;
73879;SDS011;62211;42.986;23.256;2022-09-13T09:08:59;5.05;;;2.95;;
73879;SDS011;62211;42.986;23.256;2022-09-13T09:16:57;5.75;;;2.95;;
73879;SDS011;62211;42.986;23.256;2022-09-13T09:19:31;2.45;;;2.25;;
73879;SDS011;62211;42.986;23.256;2022-09-13T09:24:25;3.15;;;2.72;;
73879;SDS011;62211;42.986;23.256;2022-09-13T09:26:57;2.85;;;2.53;;
73879;SDS011;62211;42.986;23.256;2022-09-13T09:29:29;5.63;;;4.18;;
73879;SDS011;62211;42.986;23.256;2022-09-13T09:32:01;2.83;;;2.40;;
73879;SDS011;62211;42.986;23.256;2022-09-13T09:37:19;3.40;;;2.40;;
73879;SDS011;62211;42.986;23.256;2022-09-13T09:39:52;2.85;;;2.17;;
73879;SDS011;62211;42.986;23.256;2022-09-13T09:42:23;4.38;;;2.90;;
73879;SDS011;62211;42.986;23.256;2022-09-13T09:44:51;2.63;;;2.30;;
73879;SDS011;62211;42.986;23.256;2022-09-13T09:47:22;3.63;;;2.72;;
73879;SDS011;62211;42.986;23.256;2022-09-13T09:50:37;3.47;;;2.25;;
73879;SDS011;62211;42.986;23.256;2022-09-13T10:01:26;2.47;;;2.28;;
73879;SDS011;62211;42.986;23.256;2022-09-13T10:09:03;3.00;;;2.80;;
73879;SDS011;62211;42.986;23.256;2022-09-13T10:19:57;3.20;;;2.90;;
73879;SDS011;62211;42.986;23.256;2022-09-13T10:22:25;6.95;;;3.05;;
73879;SDS011;62211;42.986;23.256;2022-09-13T10:24:51;2.97;;;2.70;;
73879;SDS011;62211;42.986;23.256;2022-09-13T10:29:55;4.90;;;2.53;;
73879;SDS011;62211;42.986;23.256;2022-09-13T10:32:24;2.65;;;2.45;;
73879;SDS011;62211;42.986;23.256;2022-09-13T10:34:51;3.30;;;3.00;;
73879;SDS011;62211;42.986;23.256;2022-09-13T10:39:52;2.63;;;2.42;;
73879;SDS011;62211;42.986;23.256;2022-09-13T10:42:20;2.80;;;2.60;;
73879;SDS011;62211;42.986;23.256;2022-09-13T10:45:06;2.63;;;2.42;;
73879;SDS011;62211;42.986;23.256;2022-09-13T10:50:22;3.88;;;2.90;;
73879;SDS011;62211;42.986;23.256;2022-09-13T10:52:56;3.30;;;2.53;;
73879;SDS011;62211;42.986;23.256;2022-09-13T10:55:33;3.95;;;2.85;;
73879;SDS011;62211;42.986;23.256;2022-09-13T11:11:23;4.13;;;2.38;;
73879;SDS011;62211;42.986;23.256;2022-09-13T11:24:34;2.88;;;2.33;;
73879;SDS011;62211;42.986;23.256;2022-09-13T11:27:16;2.85;;;2.40;;
73879;SDS011;62211;42.986;23.256;2022-09-13T11:45:59;2.25;;;2.05;;
73879;SDS011;62211;42.986;23.256;2022-09-13T11:49:00;6.30;;;2.10;;
73879;SDS011;62211;42.986;23.256;2022-09-13T11:56:51;2.58;;;2.38;;
73879;SDS011;62211;42.986;23.256;2022-09-13T11:59:27;2.85;;;2.30;;
73879;SDS011;62211;42.986;23.256;2022-09-13T12:02:21;2.75;;;2.33;;
73879;SDS011;62211;42.986;23.256;2022-09-13T12:05:02;3.20;;;2.65;;
73879;SDS011;62211;42.986;23.256;2022-09-13T12:07:35;3.35;;;2.55;;
73879;SDS011;62211;42.986;23.256;2022-09-13T12:10:06;2.58;;;2.20;;
73879;SDS011;62211;42.986;23.256;2022-09-13T12:13:00;3.30;;;2.47;;
73879;SDS011;62211;42.986;23.256;2022-09-13T12:18:03;3.90;;;2.50;;
73879;SDS011;62211;42.986;23.256;2022-09-13T12:20:47;2.05;;;1.80;;
73879;SDS011;62211;42.986;23.256;2022-09-13T12:23:18;3.33;;;2.65;;
73879;SDS011;62211;42.986;23.256;2022-09-13T12:25:50;3.55;;;2.55;;
73879;SDS011;62211;42.986;23.256;2022-09-13T12:28:21;2.40;;;2.20;;
73879;SDS011;62211;42.986;23.256;2022-09-13T12:30:54;3.20;;;2.50;;
73879;SDS011;62211;42.986;23.256;2022-09-13T12:33:22;2.63;;;1.88;;
73879;SDS011;62211;42.986;23.256;2022-09-13T12:38:33;3.40;;;2.55;;
73879;SDS011;62211;42.986;23.256;2022-09-13T13:00:22;2.10;;;2.00;;
73879;SDS011;62211;42.986;23.256;2022-09-13T13:02:51;2.60;;;2.10;;
73879;SDS011;62211;42.986;23.256;2022-09-13T13:05:46;2.28;;;2.17;;
73879;SDS011;62211;42.986;23.256;2022-09-13T13:10:58;2.42;;;2.20;;
73879;SDS011;62211;42.986;23.256;2022-09-13T13:13:38;2.20;;;2.00;;
73879;SDS011;62211;42.986;23.256;2022-09-13T13:18:58;2.45;;;2.25;;
73879;SDS011;62211;42.986;23.256;2022-09-13T13:29:12;6.47;;;4.80;;
73879;SDS011;62211;42.986;23.256;2022-09-13T13:36:47;3.53;;;2.90;;
73879;SDS011;62211;42.986;23.256;2022-09-13T13:49:40;7.50;;;3.35;;
73879;SDS011;62211;42.986;23.256;2022-09-13T14:02:45;4.38;;;3.08;;
73879;SDS011;62211;42.986;23.256;2022-09-13T14:21:39;2.60;;;2.45;;
73879;SDS011;62211;42.986;23.256;2022-09-13T14:26:39;2.70;;;2.50;;
73879;SDS011;62211;42.986;23.256;2022-09-13T14:29:06;3.42;;;2.70;;
73879;SDS011;62211;42.986;23.256;2022-09-13T14:31:33;2.38;;;2.17;;
73879;SDS011;62211;42.986;23.256;2022-09-13T14:33:59;2.47;;;2.33;;
73879;SDS011;62211;42.986;23.256;2022-09-13T14:36:25;2.30;;;2.20;;
73879;SDS011;62211;42.986;23.256;2022-09-13T14:39:00;3.13;;;2.65;;
73879;SDS011;62211;42.986;23.256;2022-09-13T14:41:30;2.80;;;2.50;;
73879;SDS011;62211;42.986;23.256;2022-09-13T14:44:12;3.85;;;2.70;;
73879;SDS011;62211;42.986;23.256;2022-09-13T14:46:45;2.30;;;2.10;;
73879;SDS011;62211;42.986;23.256;2022-09-13T14:49:15;2.63;;;2.38;;
73879;SDS011;62211;42.986;23.256;2022-09-13T14:51:55;2.63;;;2.42;;
73879;SDS011;62211;42.986;23.256;2022-09-13T14:54:28;2.47;;;2.28;;
73879;SDS011;62211;42.986;23.256;2022-09-13T14:56:56;2.83;;;2.55;;
73879;SDS011;62211;42.986;23.256;2022-09-13T15:02:06;3.05;;;2.72;;
73879;SDS011;62211;42.986;23.256;2022-09-13T15:04:55;3.15;;;2.92;;
73879;SDS011;62211;42.986;23.256;2022-09-13T15:07:32;3.00;;;2.70;;
73879;SDS011;62211;42.986;23.256;2022-09-13T15:12:36;3.22;;;2.40;;
73879;SDS011;62211;42.986;23.256;2022-09-13T15:15:16;2.80;;;2.50;;
73879;SDS011;62211;42.986;23.256;2022-09-13T15:20:24;7.05;;;4.63;;
73879;SDS011;62211;42.986;23.256;2022-09-13T15:22:51;2.42;;;2.22;;
73879;SDS011;62211;42.986;23.256;2022-09-13T15:25:27;5.20;;;2.67;;
73879;SDS011;62211;42.986;23.256;2022-09-13T15:27:53;4.38;;;2.83;;
73879;SDS011;62211;42.986;23.256;2022-09-13T15:32:48;4.43;;;2.53;;
73879;SDS011;62211;42.986;23.256;2022-09-13T15:35:21;2.70;;;2.50;;
73879;SDS011;62211;42.986;23.256;2022-09-13T15:38:00;3.30;;;2.53;;
73879;SDS011;62211;42.986;23.256;2022-09-13T15:40:29;3.85;;;2.95;;
73879;SDS011;62211;42.986;23.256;2022-09-13T15:43:06;2.85;;;2.65;;
73879;SDS011;62211;42.986;23.256;2022-09-13T15:45:31;7.32;;;3.45;;
73879;SDS011;62211;42.986;23.256;2022-09-13T15:47:57;3.25;;;2.97;;
73879;SDS011;62211;42.986;23.256;2022-09-13T15:50:26;4.25;;;2.92;;
73879;SDS011;62211;42.986;23.256;2022-09-13T15:52:55;3.70;;;3.30;;
73879;SDS011;62211;42.986;23.256;2022-09-13T15:55:21;3.30;;;3.05;;
73879;SDS011;62211;42.986;23.256;2022-09-13T15:57:47;5.60;;;3.45;;
73879;SDS011;62211;42.986;23.256;2022-09-13T16:00:13;4.00;;;3.70;;
73879;SDS011;62211;42.986;23.256;2022-09-13T16:02:40;3.67;;;3.25;;
73879;SDS011;62211;42.986;23.256;2022-09-13T16:05:06;4.82;;;3.42;;
73879;SDS011;62211;42.986;23.256;2022-09-13T16:07:32;6.32;;;3.25;;
73879;SDS011;62211;42.986;23.256;2022-09-13T16:09:58;6.55;;;3.72;;
73879;SDS011;62211;42.986;23.256;2022-09-13T16:12:23;7.03;;;3.97;;
73879;SDS011;62211;42.986;23.256;2022-09-13T16:14:51;5.13;;;3.30;;
73879;SDS011;62211;42.986;23.256;2022-09-13T16:17:19;6.00;;;3.60;;
73879;SDS011;62211;42.986;23.256;2022-09-13T16:19:47;7.60;;;4.55;;
73879;SDS011;62211;42.986;23.256;2022-09-13T16:22:12;6.97;;;3.85;;
73879;SDS011;62211;42.986;23.256;2022-09-13T16:24:37;4.65;;;4.18;;
73879;SDS011;62211;42.986;23.256;2022-09-13T16:27:03;5.88;;;5.28;;
73879;SDS011;62211;42.986;23.256;2022-09-13T16:29:28;6.45;;;4.28;;
73879;SDS011;62211;42.986;23.256;2022-09-13T16:31:54;9.43;;;4.13;;
73879;SDS011;62211;42.986;23.256;2022-09-13T16:34:21;6.35;;;4.40;;
73879;SDS011;62211;42.986;23.256;2022-09-13T16:36:47;5.70;;;4.22;;
73879;SDS011;62211;42.986;23.256;2022-09-13T16:39:12;5.15;;;4.65;;
73879;SDS011;62211;42.986;23.256;2022-09-13T16:41:38;12.95;;;6.10;;
73879;SDS011;62211;42.986;23.256;2022-09-13T16:44:04;11.27;;;6.43;;
73879;SDS011;62211;42.986;23.256;2022-09-13T16:46:30;8.07;;;5.85;;
73879;SDS011;62211;42.986;23.256;2022-09-13T16:48:56;8.55;;;5.70;;
73879;SDS011;62211;42.986;23.256;2022-09-13T16:51:21;9.85;;;4.88;;
73879;SDS011;62211;42.986;23.256;2022-09-13T16:53:48;12.57;;;6.10;;
73879;SDS011;62211;42.986;23.256;2022-09-13T16:56:15;7.47;;;4.90;;
73879;SDS011;62211;42.986;23.256;2022-09-13T16:58:42;8.45;;;5.28;;
73879;SDS011;62211;42.986;23.256;2022-09-13T17:01:13;6.93;;;4.57;;
73879;SDS011;62211;42.986;23.256;2022-09-13T17:03:40;6.22;;;4.32;;
73879;SDS011;62211;42.986;23.256;2022-09-13T17:06:07;10.88;;;5.07;;
73879;SDS011;62211;42.986;23.256;2022-09-13T17:08:34;9.32;;;4.32;;
73879;SDS011;62211;42.986;23.256;2022-09-13T17:11:03;9.75;;;5.03;;
73879;SDS011;62211;42.986;23.256;2022-09-13T17:13:29;11.07;;;6.28;;
73879;SDS011;62211;42.986;23.256;2022-09-13T17:15:55;13.02;;;5.35;;
73879;SDS011;62211;42.986;23.256;2022-09-13T17:18:20;9.75;;;5.63;;
73879;SDS011;62211;42.986;23.256;2022-09-13T17:20:47;10.82;;;5.78;;
73879;SDS011;62211;42.986;23.256;2022-09-13T17:23:14;6.85;;;5.47;;
73879;SDS011;62211;42.986;23.256;2022-09-13T17:25:41;6.72;;;6.03;;
73879;SDS011;62211;42.986;23.256;2022-09-13T17:28:13;7.05;;;5.18;;
73879;SDS011;62211;42.986;23.256;2022-09-13T17:30:42;6.60;;;5.05;;
73879;SDS011;62211;42.986;23.256;2022-09-13T17:33:08;11.90;;;5.65;;
73879;SDS011;62211;42.986;23.256;2022-09-13T17:35:34;10.15;;;4.75;;
73879;SDS011;62211;42.986;23.256;2022-09-13T17:38:00;6.63;;;5.90;;
73879;SDS011;62211;42.986;23.256;2022-09-13T17:40:26;7.90;;;5.38;;
73879;SDS011;62211;42.986;23.256;2022-09-13T17:42:52;8.25;;;5.75;;
73879;SDS011;62211;42.986;23.256;2022-09-13T17:45:19;11.73;;;6.60;;
73879;SDS011;62211;42.986;23.256;2022-09-13T17:47:45;8.38;;;5.25;;
73879;SDS011;62211;42.986;23.256;2022-09-13T17:50:11;5.35;;;4.85;;
73879;SDS011;62211;42.986;23.256;2022-09-13T17:52:36;6.60;;;5.20;;
73879;SDS011;62211;42.986;23.256;2022-09-13T17:55:02;5.97;;;5.22;;
73879;SDS011;62211;42.986;23.256;2022-09-13T17:57:28;6.90;;;5.60;;
73879;SDS011;62211;42.986;23.256;2022-09-13T17:59:54;6.50;;;5.40;;
73879;SDS011;62211;42.986;23.256;2022-09-13T18:02:19;7.03;;;5.05;;
73879;SDS011;62211;42.986;23.256;2022-09-13T18:04:46;5.35;;;4.72;;
73879;SDS011;62211;42.986;23.256;2022-09-13T18:07:14;5.18;;;4.63;;
73879;SDS011;62211;42.986;23.256;2022-09-13T18:09:40;7.47;;;5.18;;
73879;SDS011;62211;42.986;23.256;2022-09-13T18:12:05;7.82;;;5.13;;
73879;SDS011;62211;42.986;23.256;2022-09-13T18:14:31;8.27;;;5.18;;
73879;SDS011;62211;42.986;23.256;2022-09-13T18:16:57;6.07;;;5.22;;
73879;SDS011;62211;42.986;23.256;2022-09-13T18:19:23;5.50;;;5.00;;
73879;SDS011;62211;42.986;23.256;2022-09-13T18:21:48;6.65;;;5.05;;
73879;SDS011;62211;42.986;23.256;2022-09-13T18:24:14;5.30;;;4.82;;
73879;SDS011;62211;42.986;23.256;2022-09-13T18:26:39;7.32;;;5.43;;
73879;SDS011;62211;42.986;23.256;2022-09-13T18:29:06;7.70;;;5.90;;
73879;SDS011;62211;42.986;23.256;2022-09-13T18:31:34;6.40;;;5.45;;
73879;SDS011;62211;42.986;23.256;2022-09-13T18:34:02;7.45;;;5.80;;
73879;SDS011;62211;42.986;23.256;2022-09-13T18:36:30;9.07;;;6.32;;
73879;SDS011;62211;42.986;23.256;2022-09-13T18:38:57;8.27;;;6.07;;
73879;SDS011;62211;42.986;23.256;2022-09-13T18:41:24;9.45;;;6.97;;
73879;SDS011;62211;42.986;23.256;2022-09-13T18:43:51;8.80;;;6.95;;
73879;SDS011;62211;42.986;23.256;2022-09-13T18:46:19;7.57;;;5.82;;
73879;SDS011;62211;42.986;23.256;2022-09-13T18:48:48;9.18;;;6.18;;
73879;SDS011;62211;42.986;23.256;2022-09-13T18:51:16;10.95;;;6.32;;
73879;SDS011;62211;42.986;23.256;2022-09-13T18:53:43;10.07;;;5.57;;
73879;SDS011;62211;42.986;23.256;2022-09-13T18:56:10;8.05;;;6.10;;
73879;SDS011;62211;42.986;23.256;2022-09-13T18:58:37;7.75;;;6.38;;
73879;SDS011;62211;42.986;23.256;2022-09-13T19:01:08;8.38;;;5.20;;
73879;SDS011;62211;42.986;23.256;2022-09-13T19:03:36;10.02;;;5.95;;